Fort St John Airport
CYXJ : now visible

Airfield :











YOU CAN JOIN US ON...

 
LOGIN :

Register | Disclaimer

   EN    FR    IT 

 









Legend :    VFR   Marginal VFR   IFR   Intensive IFR   Very Intensive IFR
Visi :
Ceiling :
>= 8 km
>= 3000ft
5 to 8 km
1000 to 3000 ft
1500m to 5 km
500 to 1000 ft
800 to 1500m
200 to 500 ft
< 800m
< 200 ft
Symbols :   Thunderstorms  Fog  Heavy snow  Heavy precipitations  Wind > 20 kt






- Airport Elevation : 2280 ft
- IATA code : YXJ


CYXJ - Fort St John

CURRENT METAR :
  • 240900Z 00000KT 15SM SCT050 M09/M13 A3054 RMK SC4 SLP394

EXPIRED METARs :
  • 240800Z 36005KT 15SM BKN035 M08/M12 A3053 RMK SC7 SLP392
  • 240700Z 34002KT 15SM OVC034 M08/M12 A3052 RMK SC8 SLP389
  • 240650Z 34004KT 15SM OVC034 M08/M12 A3052 RMK SC8 SLP390

TAF TAF CYXJ
Valid from the 24 at 07:00 until the 24 at 19:00 UTC


240638Z 2407/2419 33006KT P6SM -SN OVC030
TEMPO 2407/2410 P6SM NSW SCT030
FM241000 27008KT P6SM SCT040 RMK NXT FCST BY 241300Z
CZEG FIR / North America



MET'MAP, your aeronautical weather chart ! - Copyright ORBIFLY December 2007 - Disclaimer

ORBIFLY MET'MAP TEAM :

Programming & Development : Alexandra Zaïnal
Concept & original design : Baudouin d'Aumeries
Assistance for programming : Marc-Olivier Méhu
Technical & hardware support : Manuel Goepfert

Contact : metmap@orbifly.com




SOURCES & CREDITS :

   NOAA       Earth
Advisory